SVSA/SVZ METAR and TAF weather

Enter ICAO airport designator
Station Type Date Time Source
SVSA METAR 2023/01/21 20:00 UTC NOAA

SVSA 212000Z /////KT 9999 FEW023 ///// Q////


Station Type Date Time Source
SVSA Decoded METAR 2023/01/21 20:00 UTC NOAA

San Antonio Del Tachira, Venezuela (SVSA) 07-51N 072-27W 378M
Jan 21, 2023 - 03:00 PM EST / 2023.01.21 2000 UTC
Visibility: greater than 7 mile(s):0
Sky conditions: mostly clear
ob: SVSA 212000Z /////KT 9999 FEW023 ///// Q////
cycle: 20

Station Type Date Time Source
SVSA TAF 2023/02/03 18:03 UTC NOAA

TAF SVSA 031600Z 0318/0418 12004KT 9999 SCT020 TX32/0319Z TN18/0407Z
BECMG 0317/0321 11003KT 9999 SCT060 BKN020

Example: see airport list